Time;durP1;ratioP1;P1;durP2;ratioP2;P2;SDS_P1;SDS_P2;PMS_P1;PMS_P2;Temp;Humidity;BMP_temperature;BMP_pressure;BME280_temperature;BME280_humidity;BME280_pressure;Samples;Min_cycle;Max_cycle;Signal;HPM_P1;HPM_P2
2023/04/04 00:00:26;;;;;;;7.50;1.60;;;1.90;99.90;;;;;;5051395;28;20397;-52
2023/04/04 00:02:51;;;;;;;5.50;1.40;;;1.80;99.90;;;;;;5051656;28;20378;-52
2023/04/04 00:05:17;;;;;;;7.23;1.30;;;2.60;99.90;;;;;;5050372;28;20365;-52
2023/04/04 00:07:46;;;;;;;7.03;1.80;;;2.00;99.90;;;;;;5050938;28;20742;-52
2023/04/04 00:10:11;;;;;;;5.63;1.80;;;2.00;99.90;;;;;;5050438;28;20424;-52
2023/04/04 00:12:37;;;;;;;6.60;1.37;;;1.90;99.90;;;;;;5051346;28;20464;-52
2023/04/04 00:15:03;;;;;;;5.22;1.20;;;1.90;99.90;;;;;;5050547;28;20387;-52
2023/04/04 00:17:29;;;;;;;6.78;1.90;;;2.00;99.90;;;;;;5051427;28;20374;-52
2023/04/04 00:19:56;;;;;;;5.25;1.33;;;1.90;99.90;;;;;;5051341;28;20381;-53
2023/04/04 00:22:21;;;;;;;6.07;1.40;;;1.80;99.90;;;;;;5051064;28;20765;-52
2023/04/04 00:24:47;;;;;;;5.67;1.60;;;1.80;99.90;;;;;;5050549;28;20493;-52
2023/04/04 00:27:13;;;;;;;5.40;1.40;;;1.90;99.90;;;;;;5050070;28;20675;-52
2023/04/04 00:29:39;;;;;;;5.70;1.60;;;1.80;99.90;;;;;;5050358;28;20421;-52
2023/04/04 00:32:04;;;;;;;7.43;1.60;;;1.80;99.90;;;;;;5048823;28;20451;-52
2023/04/04 00:34:30;;;;;;;8.65;1.85;;;1.90;99.90;;;;;;5050832;28;20386;-52
2023/04/04 00:36:56;;;;;;;5.90;1.50;;;1.80;99.90;;;;;;5050310;28;20464;-52
2023/04/04 00:39:22;;;;;;;6.20;1.70;;;1.80;99.90;;;;;;5051318;28;20385;-52
2023/04/04 00:41:49;;;;;;;6.60;1.35;;;1.80;99.90;;;;;;5050582;28;20389;-52
2023/04/04 00:44:15;;;;;;;7.40;1.70;;;1.80;99.90;;;;;;5049952;28;20890;-52
2023/04/04 00:46:40;;;;;;;5.40;1.40;;;1.90;99.90;;;;;;5050415;28;20392;-52
2023/04/04 00:49:06;;;;;;;6.10;1.90;;;1.90;99.90;;;;;;5049942;28;20389;-52
2023/04/04 00:51:31;;;;;;;7.47;2.00;;;1.80;99.90;;;;;;5050316;28;20393;-52
2023/04/04 00:53:58;;;;;;;6.27;1.80;;;2.60;99.90;;;;;;5049916;28;20492;-54
2023/04/04 00:56:24;;;;;;;5.82;1.75;;;1.80;99.90;;;;;;5050430;28;20386;-52
2023/04/04 00:58:50;;;;;;;5.65;1.50;;;1.70;99.90;;;;;;5050636;28;20405;-52
2023/04/04 01:01:16;;;;;;;5.70;1.70;;;1.70;99.90;;;;;;5049747;28;20393;-52
2023/04/04 01:03:43;;;;;;;6.30;2.20;;;1.60;99.90;;;;;;5050554;28;20370;-52
2023/04/04 01:06:08;;;;;;;6.60;1.98;;;1.70;99.90;;;;;;5049194;28;20381;-52
2023/04/04 01:08:39;;;;;;;7.70;1.70;;;1.50;99.90;;;;;;5050547;28;20390;-52
2023/04/04 01:11:05;;;;;;;7.60;1.95;;;1.40;99.90;;;;;;5048940;28;20405;-52
2023/04/04 01:13:32;;;;;;;7.30;1.50;;;1.30;99.90;;;;;;5049993;28;20381;-52
2023/04/04 01:15:58;;;;;;;5.65;1.67;;;1.30;99.90;;;;;;5049541;28;20382;-54
2023/04/04 01:18:25;;;;;;;11.70;1.80;;;1.30;99.90;;;;;;5049532;28;20393;-52
2023/04/04 01:21:03;;;;;;;5.35;1.50;;;1.20;99.90;;;;;;5049682;28;20388;-52
2023/04/04 01:23:43;;;;;;;6.35;1.50;;;1.10;99.90;;;;;;5049938;28;20436;-52
2023/04/04 01:26:09;;;;;;;6.25;1.75;;;1.10;99.90;;;;;;5048649;28;20912;-52
2023/04/04 01:28:35;;;;;;;5.80;1.50;;;1.20;99.90;;;;;;5049789;28;20393;-53
2023/04/04 01:31:04;;;;;;;5.90;1.50;;;1.20;99.90;;;;;;5049233;28;20414;-52
2023/04/04 01:33:42;;;;;;;7.00;1.65;;;1.20;99.90;;;;;;5049585;28;20425;-52
2023/04/04 01:36:15;;;;;;;5.80;1.60;;;1.20;99.90;;;;;;5049351;28;20373;-52
2023/04/04 01:38:50;;;;;;;6.45;1.55;;;1.20;99.90;;;;;;5049613;28;20401;-52
2023/04/04 01:41:17;;;;;;;6.95;1.48;;;1.10;99.90;;;;;;5049151;28;20461;-52
2023/04/04 01:43:50;;;;;;;8.30;1.60;;;1.10;99.90;;;;;;5049735;28;20417;-52
2023/04/04 01:46:17;;;;;;;8.90;1.30;;;1.00;99.90;;;;;;5048487;28;20961;-52
2023/04/04 01:48:45;;;;;;;5.90;1.33;;;1.00;99.90;;;;;;5049858;28;20915;-52
2023/04/04 01:51:11;;;;;;;5.97;1.67;;;0.90;99.90;;;;;;5048719;28;20490;-52
2023/04/04 01:53:37;;;;;;;5.77;1.57;;;1.00;99.90;;;;;;5049495;28;20381;-52
2023/04/04 01:56:03;;;;;;;6.00;1.48;;;1.00;99.90;;;;;;5048527;28;20480;-53
2023/04/04 01:58:29;;;;;;;7.05;1.70;;;0.90;99.90;;;;;;5049400;28;20404;-52
2023/04/04 02:00:55;;;;;;;5.40;1.50;;;1.00;99.90;;;;;;5049577;28;20389;-53
2023/04/04 02:03:21;;;;;;;5.30;1.27;;;1.00;99.90;;;;;;5048654;28;20389;-52
2023/04/04 02:05:48;;;;;;;7.32;1.58;;;1.00;99.90;;;;;;5049613;28;20782;-52
2023/04/04 02:08:14;;;;;;;7.38;1.70;;;1.10;99.90;;;;;;5048113;28;20887;-52
2023/04/04 02:10:40;;;;;;;5.80;1.52;;;1.10;99.90;;;;;;5049309;28;20417;-53
2023/04/04 02:13:07;;;;;;;4.90;1.30;;;1.10;99.90;;;;;;5048780;28;20377;-52
2023/04/04 02:15:34;;;;;;;6.03;1.52;;;1.00;99.90;;;;;;5049209;28;20389;-52
2023/04/04 02:18:00;;;;;;;6.28;1.90;;;1.00;99.90;;;;;;5052063;28;20381;-54
2023/04/04 02:20:27;;;;;;;5.00;1.50;;;1.10;99.90;;;;;;5052995;28;20409;-52
2023/04/04 02:22:54;;;;;;;4.82;1.33;;;1.00;99.90;;;;;;5053322;28;20892;-52
2023/04/04 02:25:21;;;;;;;8.02;1.73;;;1.00;99.90;;;;;;5052337;28;20388;-52
2023/04/04 02:27:46;;;;;;;5.90;1.63;;;1.00;99.90;;;;;;5053217;28;20421;-52
2023/04/04 02:30:13;;;;;;;9.68;1.98;;;0.90;99.90;;;;;;5051633;28;20859;-52
2023/04/04 02:32:38;;;;;;;5.87;1.57;;;0.90;99.90;;;;;;5053120;28;20386;-52
2023/04/04 02:35:05;;;;;;;7.17;1.53;;;0.90;99.90;;;;;;5052782;28;20380;-52
2023/04/04 02:37:30;;;;;;;5.68;1.70;;;0.90;99.90;;;;;;5052986;28;20385;-52
2023/04/04 02:39:56;;;;;;;5.40;1.30;;;0.80;99.90;;;;;;5052812;28;20386;-52
2023/04/04 02:42:21;;;;;;;8.70;1.60;;;0.80;99.90;;;;;;5052428;28;20386;-52
2023/04/04 02:44:47;;;;;;;6.68;1.77;;;0.70;99.90;;;;;;5052871;28;20447;-52
2023/04/04 02:47:13;;;;;;;6.27;1.50;;;0.70;99.90;;;;;;5052392;28;20464;-52
2023/04/04 02:49:38;;;;;;;5.70;1.40;;;0.70;99.90;;;;;;5052666;28;20405;-52
2023/04/04 02:52:04;;;;;;;5.90;1.90;;;0.90;99.90;;;;;;5051946;28;20376;-52
2023/04/04 02:54:29;;;;;;;6.60;1.50;;;0.80;99.90;;;;;;5052679;28;20499;-53
2023/04/04 02:56:55;;;;;;;6.90;2.08;;;0.90;99.90;;;;;;5052257;28;20382;-52
2023/04/04 02:59:20;;;;;;;6.45;2.03;;;0.90;99.90;;;;;;5052041;28;20527;-52
2023/04/04 03:01:46;;;;;;;6.60;1.60;;;0.90;99.90;;;;;;5052300;28;20381;-52
2023/04/04 03:04:13;;;;;;;7.10;1.60;;;0.80;99.90;;;;;;5051593;28;20846;-52
2023/04/04 03:06:40;;;;;;;6.50;2.20;;;0.80;99.90;;;;;;5052325;28;20390;-52
2023/04/04 03:09:05;;;;;;;6.03;1.80;;;0.80;99.90;;;;;;5051490;28;20728;-52
2023/04/04 03:11:31;;;;;;;6.47;1.80;;;0.70;99.90;;;;;;5052248;28;20393;-52
2023/04/04 03:13:57;;;;;;;10.60;3.97;;;0.70;99.90;;;;;;5052055;28;20370;-53
2023/04/04 03:16:23;;;;;;;8.83;2.97;;;0.70;99.90;;;;;;5052072;28;20397;-53
2023/04/04 03:18:48;;;;;;;8.52;2.97;;;0.50;1.00;;;;;;5051940;28;20388;-52
2023/04/04 03:21:14;;;;;;;7.95;2.60;;;0.70;99.90;;;;;;5049818;28;20402;-52
2023/04/04 03:23:41;;;;;;;7.45;2.47;;;0.60;99.90;;;;;;5052287;28;20755;-54
2023/04/04 03:26:07;;;;;;;9.70;2.00;;;0.60;99.90;;;;;;5051465;28;20480;-51
2023/04/04 03:28:33;;;;;;;9.68;2.85;;;0.60;99.90;;;;;;5051576;28;20902;-51
2023/04/04 03:31:05;;;;;;;7.10;1.90;;;0.60;99.90;;;;;;5051476;28;20976;-53
2023/04/04 03:33:35;;;;;;;6.28;1.70;;;0.60;99.90;;;;;;5051934;28;20385;-51
2023/04/04 03:36:00;;;;;;;8.40;2.35;;;0.50;99.90;;;;;;5051046;28;20393;-51
2023/04/04 03:38:26;;;;;;;6.50;2.20;;;0.50;99.90;;;;;;5052089;28;20378;-54
2023/04/04 03:41:01;;;;;;;6.85;2.13;;;0.50;99.90;;;;;;5051964;28;20766;-53
2023/04/04 03:43:27;;;;;;;6.38;1.80;;;0.50;99.90;;;;;;5051282;28;20483;-53
2023/04/04 03:45:54;;;;;;;7.88;2.50;;;0.50;99.90;;;;;;5051344;28;20405;-54
2023/04/04 03:48:19;;;;;;;8.13;2.40;;;0.50;99.90;;;;;;5050856;28;20392;-53
2023/04/04 03:50:45;;;;;;;7.80;2.00;;;0.40;99.90;;;;;;5051473;28;20405;-53
2023/04/04 03:53:11;;;;;;;7.07;2.00;;;0.50;99.90;;;;;;5050806;28;20610;-54
2023/04/04 03:55:40;;;;;;;5.97;1.90;;;0.40;99.90;;;;;;5051409;28;20866;-53
2023/04/04 03:58:06;;;;;;;5.97;1.80;;;0.40;99.90;;;;;;5050124;28;20754;-54
2023/04/04 04:00:32;;;;;;;6.20;2.00;;;0.40;99.90;;;;;;5050922;28;20392;-54
2023/04/04 04:02:57;;;;;;;6.30;1.80;;;0.40;99.90;;;;;;5051603;28;20635;-54
2023/04/04 04:05:23;;;;;;;6.10;2.15;;;0.50;99.90;;;;;;5050492;28;20390;-53
2023/04/04 04:07:49;;;;;;;8.55;2.33;;;0.30;99.90;;;;;;5051332;28;20452;-53
2023/04/04 04:10:15;;;;;;;5.93;1.70;;;0.30;99.90;;;;;;5050539;28;20913;-53
2023/04/04 04:12:41;;;;;;;5.90;2.00;;;0.30;99.90;;;;;;5050643;28;20878;-53
2023/04/04 04:15:07;;;;;;;7.37;2.17;;;0.30;99.90;;;;;;5050030;28;20522;-53
2023/04/04 04:17:33;;;;;;;6.30;1.33;;;0.20;99.90;;;;;;5051088;28;20385;-53
2023/04/04 04:19:58;;;;;;;8.50;3.45;;;0.20;99.90;;;;;;5051201;28;20388;-54
2023/04/04 04:22:24;;;;;;;8.10;2.00;;;0.20;99.90;;;;;;5050607;28;20880;-53
2023/04/04 04:24:50;;;;;;;8.65;2.60;;;0.20;99.90;;;;;;5050602;28;20850;-53
2023/04/04 04:27:15;;;;;;;8.75;1.98;;;0.30;99.90;;;;;;5049813;28;20468;-53
2023/04/04 04:29:41;;;;;;;8.60;2.85;;;0.10;99.90;;;;;;5050298;28;20498;-54
2023/04/04 04:32:07;;;;;;;7.63;2.40;;;0.30;99.90;;;;;;5049804;28;20428;-53
2023/04/04 04:34:32;;;;;;;7.80;2.47;;;0.20;99.90;;;;;;5050188;28;21200;-53
2023/04/04 04:36:58;;;;;;;9.60;2.30;;;0.20;99.90;;;;;;5050798;28;20395;-53
2023/04/04 04:39:26;;;;;;;9.35;2.58;;;0.20;99.90;;;;;;5049539;28;20993;-53
2023/04/04 04:41:52;;;;;;;10.07;3.10;;;0.20;99.90;;;;;;5050678;28;20510;-54
2023/04/04 04:44:18;;;;;;;11.35;3.63;;;0.20;99.90;;;;;;5049432;28;20523;-54
2023/04/04 04:46:45;;;;;;;9.95;3.03;;;0.20;99.90;;;;;;5050606;28;20937;-53
2023/04/04 04:49:11;;;;;;;9.38;3.33;;;0.20;99.90;;;;;;5049716;28;20408;-53
2023/04/04 04:51:37;;;;;;;7.10;2.70;;;0.20;99.90;;;;;;5050306;28;20435;-54
2023/04/04 04:54:03;;;;;;;8.10;2.00;;;0.10;99.90;;;;;;5049647;28;20397;-55
2023/04/04 04:56:28;;;;;;;8.30;2.37;;;0.10;99.90;;;;;;5050300;28;20497;-53
2023/04/04 04:58:54;;;;;;;6.65;2.58;;;0.10;99.90;;;;;;5049747;28;20393;-55
2023/04/04 05:01:20;;;;;;;8.70;2.78;;;0.10;99.90;;;;;;5049374;28;20870;-53
2023/04/04 05:03:45;;;;;;;8.10;2.47;;;0.10;99.90;;;;;;5049986;28;20393;-54
2023/04/04 05:06:11;;;;;;;8.17;2.27;;;0.10;99.90;;;;;;5049530;28;20450;-54
2023/04/04 05:08:36;;;;;;;6.63;2.53;;;0.10;1.00;;;;;;5050405;28;20468;-53
2023/04/04 05:11:02;;;;;;;6.60;2.37;;;0.10;1.00;;;;;;5049368;28;20417;-55
2023/04/04 05:13:28;;;;;;;7.70;2.60;;;0.00;99.90;;;;;;5049650;28;20382;-53
2023/04/04 05:15:53;;;;;;;12.18;2.50;;;0.10;99.90;;;;;;5049717;28;20772;-53
2023/04/04 05:18:19;;;;;;;10.97;2.53;;;0.20;99.90;;;;;;5049207;28;20452;-53
2023/04/04 05:20:50;;;;;;;6.40;2.40;;;0.30;99.90;;;;;;5050225;28;20881;-53
2023/04/04 05:23:16;;;;;;;7.10;2.60;;;1.30;99.90;;;;;;5049339;28;20446;-53
2023/04/04 05:25:42;;;;;;;6.40;2.07;;;0.30;99.90;;;;;;5050115;28;20867;-53
2023/04/04 05:28:08;;;;;;;7.90;2.50;;;0.40;99.90;;;;;;5049011;28;20423;-54
2023/04/04 05:30:34;;;;;;;12.80;2.40;;;0.60;99.90;;;;;;5049649;28;20548;-53
2023/04/04 05:33:00;;;;;;;7.00;2.40;;;1.00;99.90;;;;;;5049791;28;20397;-55
2023/04/04 05:35:26;;;;;;;6.25;2.40;;;1.40;99.90;;;;;;5049884;28;20389;-51
2023/04/04 05:37:51;;;;;;;7.07;2.50;;;1.80;99.90;;;;;;5049702;28;20765;-51
2023/04/04 05:40:17;;;;;;;7.90;2.30;;;1.90;99.90;;;;;;5048695;28;20429;-51
2023/04/04 05:42:43;;;;;;;7.00;2.63;;;1.90;99.90;;;;;;5049752;28;20475;-52
2023/04/04 05:45:09;;;;;;;7.80;2.75;;;2.10;99.90;;;;;;5048664;28;20759;-52
2023/04/04 05:47:35;;;;;;;7.47;2.60;;;2.30;99.90;;;;;;5049347;28;20862;-51
2023/04/04 05:50:01;;;;;;;8.55;2.60;;;2.70;99.90;;;;;;5049486;28;20495;-53
2023/04/04 05:52:26;;;;;;;8.30;2.60;;;2.30;99.90;;;;;;5053426;28;20388;-52
2023/04/04 05:54:52;;;;;;;7.63;2.40;;;2.30;99.90;;;;;;5053430;28;20389;-52
2023/04/04 05:57:17;;;;;;;8.00;2.90;;;2.60;99.90;;;;;;5053111;28;20381;-52
2023/04/04 05:59:43;;;;;;;8.00;2.90;;;3.10;99.90;;;;;;5054344;28;20869;-52
2023/04/04 06:02:09;;;;;;;8.27;2.70;;;3.60;99.90;;;;;;5052519;28;20557;-52
2023/04/04 06:04:34;;;;;;;7.47;2.57;;;3.70;99.90;;;;;;5047670;28;20405;-52
2023/04/04 06:07:00;;;;;;;7.90;2.93;;;4.00;99.90;;;;;;5052099;28;20401;-54
2023/04/04 06:09:26;;;;;;;7.40;2.33;;;4.70;99.90;;;;;;5052654;28;20377;-54
2023/04/04 06:11:52;;;;;;;8.70;2.92;;;5.80;99.90;;;;;;5053064;28;20377;-52
2023/04/04 06:14:17;;;;;;;8.40;2.70;;;7.00;99.90;;;;;;5052981;28;20431;-53
2023/04/04 06:16:43;;;;;;;8.65;3.38;;;7.80;99.90;;;;;;5052965;28;20858;-53
2023/04/04 06:19:08;;;;;;;7.73;2.97;;;8.80;99.90;;;;;;5053140;28;20531;-53
2023/04/04 06:21:34;;;;;;;8.98;3.70;;;9.10;99.90;;;;;;5052637;28;20381;-53
2023/04/04 06:24:00;;;;;;;11.30;3.67;;;9.50;99.90;;;;;;5052666;28;20389;-53
2023/04/04 06:26:26;;;;;;;11.13;4.50;;;10.00;99.90;;;;;;5052424;28;20403;-53
2023/04/04 06:28:51;;;;;;;11.33;3.40;;;10.30;99.90;;;;;;5052934;28;20393;-53
2023/04/04 06:31:17;;;;;;;7.63;3.30;;;10.50;99.90;;;;;;5052607;28;20504;-54
2023/04/04 06:33:43;;;;;;;8.77;3.08;;;11.30;99.90;;;;;;5053092;28;20783;-53
2023/04/04 06:36:08;;;;;;;7.68;2.97;;;11.90;99.90;;;;;;5051428;28;20392;-53
2023/04/04 06:38:34;;;;;;;7.10;2.80;;;11.50;99.90;;;;;;5052672;28;20381;-54
2023/04/04 06:41:00;;;;;;;10.63;3.20;;;11.20;99.90;;;;;;5052871;28;20429;-54
2023/04/04 06:43:26;;;;;;;8.98;2.97;;;10.80;99.90;;;;;;5052046;28;20382;-54
2023/04/04 06:45:52;;;;;;;8.55;3.03;;;10.60;99.90;;;;;;5052442;28;20385;-54
2023/04/04 06:48:17;;;;;;;7.10;2.90;;;10.80;99.90;;;;;;5052133;28;20404;-54
2023/04/04 06:50:43;;;;;;;8.83;3.00;;;10.70;99.90;;;;;;5052134;28;20451;-54
2023/04/04 06:53:08;;;;;;;8.25;2.53;;;10.50;99.90;;;;;;5051661;28;20432;-54
2023/04/04 06:55:34;;;;;;;9.50;2.93;;;10.10;99.90;;;;;;5052409;28;20386;-54
2023/04/04 06:58:00;;;;;;;11.07;3.00;;;10.70;99.90;;;;;;5052450;28;20388;-53
2023/04/04 07:00:26;;;;;;;6.70;2.67;;;10.40;99.90;;;;;;5052000;28;20394;-54
2023/04/04 07:03:01;;;;;;;6.50;2.37;;;10.30;99.90;;;;;;5051304;28;20391;-53
2023/04/04 07:05:27;;;;;;;8.10;3.00;;;10.40;99.90;;;;;;5051452;28;20382;-54
2023/04/04 07:07:54;;;;;;;6.87;2.60;;;11.10;99.90;;;;;;5051641;28;20740;-57
2023/04/04 07:10:20;;;;;;;7.53;2.70;;;11.70;99.90;;;;;;5051477;28;20405;-57
2023/04/04 07:12:46;;;;;;;7.17;2.80;;;10.90;99.90;;;;;;5051815;28;20507;-57
2023/04/04 07:15:12;;;;;;;7.95;3.15;;;11.60;99.90;;;;;;5051292;28;20755;-58
2023/04/04 07:17:38;;;;;;;7.53;3.17;;;11.80;99.90;;;;;;5051982;28;20487;-57
2023/04/04 07:20:05;;;;;;;9.93;3.70;;;11.10;99.90;;;;;;5051333;28;20397;-58
2023/04/04 07:22:30;;;;;;;8.50;3.67;;;11.10;99.90;;;;;;5051864;28;20361;-57
2023/04/04 07:24:56;;;;;;;7.60;2.70;;;11.30;99.90;;;;;;5052135;28;20715;-54
2023/04/04 07:27:22;;;;;;;7.40;2.60;;;10.90;99.90;;;;;;5050998;28;20381;-55
2023/04/04 07:29:47;;;;;;;6.87;2.80;;;11.50;99.90;;;;;;5051486;28;20422;-55
2023/04/04 07:32:13;;;;;;;7.20;2.40;;;12.00;99.90;;;;;;5051057;28;20464;-55
2023/04/04 07:34:38;;;;;;;7.53;2.60;;;12.50;99.90;;;;;;5051450;28;20381;-55
2023/04/04 07:37:04;;;;;;;8.23;2.75;;;13.50;99.90;;;;;;5051107;28;20378;-55
2023/04/04 07:39:30;;;;;;;7.00;2.50;;;13.00;99.90;;;;;;5051738;28;20428;-55
2023/04/04 07:41:56;;;;;;;8.20;2.40;;;12.90;99.90;;;;;;5051525;28;20385;-55
2023/04/04 07:44:21;;;;;;;7.53;2.60;;;13.20;99.90;;;;;;5050672;28;20640;-55
2023/04/04 07:46:47;;;;;;;8.37;2.77;;;13.40;99.90;;;;;;5051391;28;20443;-54
2023/04/04 07:49:13;;;;;;;7.27;2.90;;;12.50;99.90;;;;;;5050877;28;20386;-55
2023/04/04 07:51:38;;;;;;;6.80;2.60;;;11.90;99.90;;;;;;5051229;28;20417;-55
2023/04/04 07:54:04;;;;;;;6.95;2.47;;;12.00;99.90;;;;;;5050928;28;20424;-55
2023/04/04 07:56:30;;;;;;;6.80;2.50;;;11.70;99.90;;;;;;5051180;28;20936;-55
2023/04/04 07:58:55;;;;;;;6.40;2.38;;;11.70;99.90;;;;;;5050763;28;20447;-55
2023/04/04 08:01:21;;;;;;;7.80;2.50;;;12.10;99.90;;;;;;5050699;28;20386;-55
2023/04/04 08:03:48;;;;;;;8.10;3.00;;;12.10;99.90;;;;;;5050814;28;20385;-55
2023/04/04 08:06:14;;;;;;;6.78;2.20;;;11.90;99.90;;;;;;5050466;28;20504;-55
2023/04/04 08:08:40;;;;;;;8.80;2.83;;;12.30;99.90;;;;;;5051672;28;20473;-55
2023/04/04 08:11:06;;;;;;;9.30;3.00;;;12.10;99.90;;;;;;5050658;28;20405;-56
2023/04/04 08:13:32;;;;;;;7.03;2.70;;;12.90;99.90;;;;;;5050652;28;20385;-55
2023/04/04 08:15:57;;;;;;;6.70;2.67;;;12.90;99.90;;;;;;5050776;28;20997;-55
2023/04/04 08:18:23;;;;;;;7.40;2.50;;;13.20;99.90;;;;;;5050186;28;20763;-55
2023/04/04 08:20:49;;;;;;;6.50;2.30;;;13.60;99.90;;;;;;5051205;28;20374;-53
2023/04/04 08:23:15;;;;;;;6.70;2.30;;;14.60;99.90;;;;;;5050308;28;20711;-53
2023/04/04 08:25:42;;;;;;;6.30;2.10;;;15.20;99.90;;;;;;5050697;28;20776;-55
2023/04/04 08:28:08;;;;;;;7.50;2.35;;;14.20;99.90;;;;;;5049807;28;20480;-56
2023/04/04 08:30:33;;;;;;;7.13;2.35;;;13.60;99.90;;;;;;5050563;28;20512;-55
2023/04/04 08:32:59;;;;;;;6.70;2.30;;;12.00;99.90;;;;;;5050951;28;20481;-55
2023/04/04 08:35:25;;;;;;;6.40;2.10;;;11.90;99.90;;;;;;5050061;28;20476;-56
2023/04/04 08:37:50;;;;;;;9.57;2.55;;;12.70;99.90;;;;;;5050094;28;20378;-55
2023/04/04 08:40:16;;;;;;;8.50;2.27;;;13.00;99.90;;;;;;5049501;28;20389;-56
2023/04/04 08:42:44;;;;;;;8.65;3.20;;;13.00;99.90;;;;;;5050905;28;20369;-56
2023/04/04 08:45:11;;;;;;;7.03;2.60;;;13.20;99.90;;;;;;5049915;28;20412;-56
2023/04/04 08:47:37;;;;;;;10.20;2.90;;;13.00;99.90;;;;;;5050356;28;20388;-56
2023/04/04 08:50:07;;;;;;;8.15;2.40;;;13.00;99.90;;;;;;5050303;28;20405;-56
2023/04/04 08:52:34;;;;;;;8.97;2.93;;;13.80;1.00;;;;;;5049982;28;20413;-55
2023/04/04 08:55:03;;;;;;;7.00;2.60;;;13.90;99.90;;;;;;5050507;28;20555;-55
2023/04/04 08:57:29;;;;;;;7.80;2.50;;;13.90;99.90;;;;;;5050328;28;20381;-55
2023/04/04 08:59:54;;;;;;;7.20;2.60;;;14.00;99.90;;;;;;5050475;28;20890;-56
2023/04/04 09:02:39;;;;;;;9.10;2.58;;;13.80;99.90;;;;;;5049210;28;20378;-56
2023/04/04 09:05:07;;;;;;;8.82;2.70;;;14.00;99.90;;;;;;5049488;28;20381;-55
2023/04/04 09:07:34;;;;;;;8.20;2.50;;;15.00;99.90;;;;;;5049865;28;20430;-54
2023/04/04 09:10:00;;;;;;;7.68;2.47;;;15.70;99.90;;;;;;5049829;28;20405;-53
2023/04/04 09:12:27;;;;;;;7.28;2.45;;;15.80;1.00;;;;;;5049306;28;20460;-53
2023/04/04 09:14:55;;;;;;;6.57;2.25;;;15.40;99.90;;;;;;5050060;28;20389;-53
2023/04/04 09:17:21;;;;;;;8.93;2.20;;;15.20;99.90;;;;;;5048875;28;20717;-56
2023/04/04 09:19:47;;;;;;;7.50;2.10;;;14.20;99.90;;;;;;5049651;28;20439;-56
2023/04/04 09:22:15;;;;;;;7.83;2.50;;;15.00;99.90;;;;;;5049310;28;20394;-54
2023/04/04 09:24:41;;;;;;;7.70;2.40;;;16.10;1.00;;;;;;5049723;28;20424;-56
2023/04/04 09:27:09;;;;;;;6.82;2.28;;;15.90;99.90;;;;;;5048867;28;20870;-57
2023/04/04 09:29:40;;;;;;;6.30;2.35;;;16.90;99.90;;;;;;5049259;28;20875;-57
2023/04/04 09:32:12;;;;;;;12.00;3.00;;;18.60;99.90;;;;;;5049087;28;20889;-57
2023/04/04 09:34:39;;;;;;;7.60;2.70;;;17.20;99.90;;;;;;5049518;28;20476;-54
2023/04/04 09:37:05;;;;;;;7.70;2.67;;;16.50;99.90;;;;;;5049497;28;20419;-54
2023/04/04 09:39:33;;;;;;;7.50;2.67;;;16.20;99.90;;;;;;5049098;28;20472;-53
2023/04/04 09:42:00;;;;;;;7.10;3.10;;;15.40;99.90;;;;;;5049490;28;20623;-53
2023/04/04 09:44:32;;;;;;;6.72;2.83;;;15.70;99.90;;;;;;5049218;28;20413;-54
2023/04/04 09:47:26;;;;;;;7.43;2.47;;;16.10;1.00;;;;;;5049723;28;20403;-54
2023/04/04 09:49:52;;;;;;;7.57;2.88;;;16.50;1.00;;;;;;5049250;28;20401;-54
2023/04/04 09:52:21;;;;;;;7.97;2.87;;;16.50;1.00;;;;;;5048702;28;20450;-54
2023/04/04 09:54:57;;;;;;;7.10;2.33;;;17.10;1.00;;;;;;5049763;28;20374;-54
2023/04/04 09:57:44;;;;;;;8.02;2.42;;;17.20;1.00;;;;;;5048831;28;20418;-54
2023/04/04 10:00:11;;;;;;;7.68;2.95;;;17.00;1.00;;;;;;5048023;28;20786;-57
2023/04/04 10:02:40;;;;;;;7.88;2.70;;;18.40;1.00;;;;;;5048866;28;20381;-57
2023/04/04 10:05:09;;;;;;;10.63;2.90;;;17.50;99.90;;;;;;5049114;28;20378;-56
2023/04/04 10:07:38;;;;;;;7.30;2.40;;;17.10;99.90;;;;;;5049416;28;20383;-54
2023/04/04 10:10:05;;;;;;;7.47;2.90;;;16.90;99.90;;;;;;5049130;28;20417;-54
2023/04/04 10:12:32;;;;;;;10.05;2.63;;;16.70;99.90;;;;;;5048950;28;20802;-54
2023/04/04 10:14:58;;;;;;;10.80;2.80;;;16.60;1.00;;;;;;5049669;28;20417;-54
2023/04/04 10:17:30;;;;;;;6.90;2.40;;;16.40;1.00;;;;;;5048722;28;20393;-54
2023/04/04 10:20:04;;;;;;;7.70;2.40;;;15.90;1.00;;;;;;5049045;28;20477;-54
2023/04/04 10:22:31;;;;;;;7.28;2.63;;;15.50;99.90;;;;;;5048794;28;20817;-54
2023/04/04 10:24:57;;;;;;;6.93;3.00;;;15.30;99.90;;;;;;5048642;28;20373;-54
2023/04/04 10:27:24;;;;;;;6.72;2.90;;;15.10;99.90;;;;;;5048823;28;21783;-54
2023/04/04 10:29:50;;;;;;;7.00;2.67;;;15.90;99.90;;;;;;5048834;28;20425;-54
2023/04/04 10:32:24;;;;;;;8.73;3.05;;;16.50;99.90;;;;;;5048531;28;20382;-54
2023/04/04 10:35:09;;;;;;;7.57;2.50;;;14.90;99.90;;;;;;5048945;28;20750;-54
2023/04/04 10:37:44;;;;;;;7.28;2.40;;;14.50;99.90;;;;;;5050214;28;20715;-54
2023/04/04 10:40:15;;;;;;;7.60;2.40;;;14.10;99.90;;;;;;5051830;28;20472;-54
2023/04/04 10:42:45;;;;;;;6.15;2.30;;;14.20;99.90;;;;;;5052657;28;20393;-54
2023/04/04 10:45:13;;;;;;;6.43;3.20;;;14.00;99.90;;;;;;5052141;28;20392;-56
2023/04/04 10:47:40;;;;;;;7.53;2.70;;;12.60;99.90;;;;;;5052724;28;20416;-56
2023/04/04 10:50:08;;;;;;;8.02;2.38;;;11.70;99.90;;;;;;5052326;28;20405;-57
2023/04/04 10:52:35;;;;;;;5.78;2.00;;;12.10;99.90;;;;;;5051966;28;20895;-56
2023/04/04 10:55:10;;;;;;;7.25;2.58;;;11.90;99.90;;;;;;5052210;28;20696;-54
2023/04/04 10:57:39;;;;;;;6.93;2.30;;;11.30;99.90;;;;;;5052566;28;20479;-54
2023/04/04 11:00:09;;;;;;;8.63;2.40;;;12.20;99.90;;;;;;5052506;28;20374;-55
2023/04/04 11:02:58;;;;;;;8.15;2.58;;;11.90;99.90;;;;;;5052863;28;20934;-54
2023/04/04 11:05:39;;;;;;;7.95;2.30;;;12.40;99.90;;;;;;5051721;28;20389;-56
2023/04/04 11:08:06;;;;;;;7.85;2.53;;;13.10;99.90;;;;;;5052400;28;20382;-56
2023/04/04 11:10:36;;;;;;;6.05;2.30;;;13.10;99.90;;;;;;5051750;28;20408;-56
2023/04/04 11:13:13;;;;;;;6.80;2.42;;;13.50;99.90;;;;;;5052182;28;20369;-56
2023/04/04 11:16:03;;;;;;;7.05;2.60;;;13.10;99.90;;;;;;5052129;28;20684;-57
2023/04/04 11:18:44;;;;;;;9.00;2.42;;;12.70;99.90;;;;;;5050893;28;21050;-56
2023/04/04 11:21:22;;;;;;;7.70;2.80;;;13.00;99.90;;;;;;5051776;28;20447;-55
2023/04/04 11:23:48;;;;;;;7.00;2.10;;;12.60;99.90;;;;;;5034005;28;20797;-56
2023/04/04 11:26:34;;;;;;;8.87;2.47;;;12.30;99.90;;;;;;5050982;28;20389;-56
2023/04/04 11:29:02;;;;;;;7.40;2.17;;;12.20;99.90;;;;;;5051749;28;20414;-55
2023/04/04 11:31:33;;;;;;;6.63;2.50;;;11.80;99.90;;;;;;5051376;28;20420;-53
2023/04/04 11:34:06;;;;;;;6.82;2.25;;;11.10;99.90;;;;;;5051602;28;20390;-54
2023/04/04 11:36:35;;;;;;;9.00;2.47;;;10.80;99.90;;;;;;5051930;28;20862;-54
2023/04/04 11:39:04;;;;;;;7.72;2.58;;;10.80;99.90;;;;;;5051651;28;20392;-54
2023/04/04 11:41:52;;;;;;;6.30;2.38;;;10.60;99.90;;;;;;5050551;28;20381;-54
2023/04/04 11:44:20;;;;;;;7.32;2.20;;;10.60;99.90;;;;;;5050458;28;20389;-54
2023/04/04 11:46:46;;;;;;;7.10;2.50;;;10.50;99.90;;;;;;5051472;28;20401;-54
2023/04/04 11:49:13;;;;;;;8.63;2.70;;;10.70;99.90;;;;;;5050306;28;20388;-55
2023/04/04 11:51:39;;;;;;;7.80;2.00;;;10.90;99.90;;;;;;5051308;28;20409;-54
2023/04/04 11:54:17;;;;;;;6.22;2.40;;;10.90;99.90;;;;;;5051034;28;20435;-54
2023/04/04 11:56:44;;;;;;;6.15;2.13;;;11.00;99.90;;;;;;5051100;28;20381;-54
2023/04/04 11:59:16;;;;;;;7.20;2.38;;;11.50;99.90;;;;;;5050557;28;20446;-54
2023/04/04 12:01:43;;;;;;;7.03;2.43;;;12.00;99.90;;;;;;5051321;28;20516;-54
2023/04/04 12:04:09;;;;;;;8.57;3.50;;;12.20;99.90;;;;;;5050320;28;20417;-54
2023/04/04 12:06:36;;;;;;;10.75;2.53;;;12.20;99.90;;;;;;5051482;28;20436;-54
2023/04/04 12:09:02;;;;;;;7.00;2.22;;;12.20;99.90;;;;;;5051013;28;20411;-53
2023/04/04 12:11:32;;;;;;;9.18;2.70;;;11.60;99.90;;;;;;5050400;28;20416;-53
2023/04/04 12:14:00;;;;;;;6.50;2.20;;;11.20;99.90;;;;;;5050702;28;20394;-54
2023/04/04 12:16:27;;;;;;;6.60;2.30;;;11.20;99.90;;;;;;5049806;28;20890;-54
2023/04/04 12:18:52;;;;;;;7.95;2.72;;;11.40;99.90;;;;;;5050586;28;20928;-53
2023/04/04 12:21:18;;;;;;;10.43;2.40;;;11.40;99.90;;;;;;5049839;28;20385;-54
2023/04/04 12:23:47;;;;;;;7.90;2.67;;;11.60;99.90;;;;;;5050591;28;20373;-54
2023/04/04 12:26:14;;;;;;;7.40;2.33;;;11.70;99.90;;;;;;5049791;28;20442;-54
2023/04/04 12:28:44;;;;;;;8.20;2.30;;;11.60;99.90;;;;;;5050177;28;20389;-54
2023/04/04 12:31:11;;;;;;;7.38;2.63;;;11.30;99.90;;;;;;5049798;28;20448;-55
2023/04/04 12:33:39;;;;;;;7.50;2.47;;;11.20;99.90;;;;;;5050657;28;20440;-54
2023/04/04 12:36:07;;;;;;;7.00;2.60;;;10.40;99.90;;;;;;5050813;28;20476;-54
2023/04/04 12:38:33;;;;;;;8.05;2.70;;;10.20;99.90;;;;;;5049696;28;20466;-54
2023/04/04 12:40:59;;;;;;;6.90;2.10;;;10.50;99.90;;;;;;5050373;28;20840;-54
2023/04/04 12:43:30;;;;;;;7.65;2.03;;;11.00;99.90;;;;;;5049278;28;20489;-54
2023/04/04 12:45:57;;;;;;;8.40;2.60;;;11.10;99.90;;;;;;5050133;28;20747;-54
2023/04/04 12:48:28;;;;;;;6.07;2.00;;;10.70;99.90;;;;;;5049918;28;20476;-54
2023/04/04 12:50:56;;;;;;;6.70;2.40;;;10.70;99.90;;;;;;5050054;28;20401;-54
2023/04/04 12:53:25;;;;;;;7.30;2.57;;;10.80;99.90;;;;;;5049294;28;20816;-54